Carlock, IL (61725)

10:35 AM CST on December 06, 2016 (GMT -0600)
APRSWXNET | | Change Station

Elev 803 ft 40.53 °N, 89.17 °W | Updated 34 minutes ago

Overcast
Overcast
32 °F
Feels Like 32 °F
N
0
Wind Variable Wind from NW
Gusts 6.0 mph

Today
High -- | Low -- °F
--% Chance of Precip.
Yesterday
High -- | Low -- °F
Precip. -- in
Pressure 29.88 in
Visibility 2.0 miles
Clouds Overcast 300 ft
Windchill 32 °F
Dew Point 31 °F
Humidity 96%
Rainfall in
Snow Depth Not available.
7:06 AM 4:29 PM
Waxing Crescent, 43% visible
METAR KBMI 061556Z 32007KT 2SM BR OVC003 00/M01 A2980 RMK AO2 SLP118 T00001006
Pressure 29.88 in
Visibility 2.0 miles
Clouds Overcast 300 ft
Windchill 32 °F
Dew Point 31 °F
Humidity 96%
Rainfall in
Snow Depth Not available.
7:06 AM 4:29 PM
Waxing Crescent, 43% visible
METAR KBMI 061556Z 32007KT 2SM BR OVC003 00/M01 A2980 RMK AO2 SLP118 T00001006

10-Day Weather Forecast

Almanac

Astronomy

Dec. 06, 2016 Rise Set
Actual Time
Civil Twilight
Nautical Twilight
Astronomical Twilight
Moon
Length of Visible Light
Length of Day
Tomorrow will be .
, % of the Moon is Illuminated

Today's Extremes

State Highs State Lows

Community

WunderPhotos

Upload Photos

1,955,980 photos uploaded!

WunderBlog® & News

Nearby

Air Quality

  Air Quality AQ Index Pollutant
Not available.

Snow Depth

Station Depth Elevation

Earthquake Activity

City Distance Mag. Time & Date
Minimum magnitude displayed is 2.5.

Coastal Water Temperatures

Place Temperature

Stations

Nearby Weather Stations

Station Location Temp. Windchill Dew Point Humidity Wind Precip. Elev Updated Type
                   

Watches & Warnings

There are currently no watches in effect.